首页
METAR-TAF:

METAR-TAF

机场 :

土伦, 法国

纬度: 43-06N, 经度: 006-09E, 海拔: 3米

当前天气观测

该预报发布于31分钟前的05:30 UTC
风速6节,风向北转西北
温度 8°C
湿度 81%
气压 1009 hPa
能见度10公里或以上
小雨

METAR: LFTH 190530Z AUTO 34006KT 9999 -RA ///CB 08/05 Q1009 TEMPO RA OVC030

时间: 07:01 (06:01 UTC)

预报

该预报发布于4小时和1分钟前的02:00 UTC
预报有效从19日的 03点(UTC)到 20日的 03点(UTC)
风速10节,风向
能见度10公里或以上
阴天层高于4000英尺
短暂存在
从 19日的 03点(UTC)到 19日的 13点(UTC)
能见度10公里或以上
阴天层高于3000英尺
短暂存在
从 19日的 03点(UTC)到 19日的 09点(UTC)
风速10节,风向,有时为20节阵风
成为
从 19日的 13点(UTC)到 19日的 16点(UTC)
能见度10公里或以上
多云层高于5000英尺

TAF: LFTH 190200Z 1903/2003 35010KT 9999 OVC040 TEMPO 1903/1913 9999 RA OVC030 TEMPO 1903/1909 36010G20KT BECMG 1913/1916 9999 BKN050

超过4000个机场的气象观测和天气预报(METAR&TAF报告)。

可查询的气象台以黄色和红色小点在地图上表示。

将鼠标移到小点上方,可查看气象台名称。

然后点击查看天气观测和预报。

如需切换地图:点击带黑十字的绿色按钮放大地图;点击带横线的绿色按钮缩小地图;或者点击绿色箭头查看邻近地区的地图。


METAR-TAF: